Time;durP1;ratioP1;P1;durP2;ratioP2;P2;SDS_P1;SDS_P2;PMS_P1;PMS_P2;Temp;Humidity;BMP_temperature;BMP_pressure;BME280_temperature;BME280_humidity;BME280_pressure;Samples;Min_cycle;Max_cycle;Signal;HPM_P1;HPM_P2
2022/05/04 00:00:17;;;;;;;3.70;1.67;;;;;;;9.37;61.79;100720.50;1717005;83;20833;-78
2022/05/04 00:02:44;;;;;;;2.92;1.92;;;;;;;9.36;61.76;100718.83;1716742;82;20951;-79
2022/05/04 00:05:10;;;;;;;2.90;2.08;;;;;;;9.34;61.74;100722.83;1716825;83;21405;-79
2022/05/04 00:07:37;;;;;;;3.90;2.20;;;;;;;9.32;61.73;100718.13;1716624;83;21272;-78
2022/05/04 00:10:06;;;;;;;3.10;1.75;;;;;;;9.29;61.68;100727.91;1717211;83;21435;-78
2022/05/04 00:12:33;;;;;;;6.87;2.12;;;;;;;9.27;61.65;100724.52;1717112;83;20951;-78
2022/05/04 00:15:00;;;;;;;4.65;2.10;;;;;;;9.24;61.60;100726.84;1716952;82;20895;-78
2022/05/04 00:17:27;;;;;;;3.47;2.10;;;;;;;9.23;61.47;100726.48;1716687;83;20860;-80
2022/05/04 00:19:53;;;;;;;4.75;2.15;;;;;;;9.22;61.32;100719.53;1716618;83;21630;-79
2022/05/04 00:22:21;;;;;;;5.08;2.58;;;;;;;9.21;61.18;100720.95;1716854;83;21432;-79
2022/05/04 00:24:48;;;;;;;4.00;1.55;;;;;;;9.22;61.00;100728.69;1716508;83;20951;-79
2022/05/04 00:27:15;;;;;;;2.42;1.95;;;;;;;9.22;60.75;100728.69;1716594;83;20924;-78
2022/05/04 00:29:43;;;;;;;3.42;2.80;;;;;;;9.22;60.43;100727.86;1716548;83;20916;-78
2022/05/04 00:32:12;;;;;;;4.15;2.08;;;;;;;9.20;60.12;100724.00;1716537;83;21247;-79
2022/05/04 00:34:40;;;;;;;7.42;2.08;;;;;;;9.22;59.84;100723.92;1716572;82;21413;-79
2022/05/04 00:37:06;;;;;;;5.95;2.30;;;;;;;9.22;59.71;100730.00;1716944;83;21275;-79
2022/05/04 00:39:34;;;;;;;5.53;2.33;;;;;;;9.20;59.56;100725.30;1716511;82;21401;-80
2022/05/04 00:42:13;;;;;;;9.88;2.40;;;;;;;9.20;59.33;100721.86;1716635;83;20959;-79
2022/05/04 00:44:41;;;;;;;3.27;2.02;;;;;;;9.19;59.19;100721.48;1716633;82;21472;-80
2022/05/04 00:47:08;;;;;;;4.10;2.60;;;;;;;9.18;58.97;100727.63;1716510;83;20860;-79
2022/05/04 00:49:35;;;;;;;6.45;2.33;;;;;;;9.16;58.95;100721.19;1716764;82;20837;-79
2022/05/04 00:52:04;;;;;;;6.75;2.25;;;;;;;9.14;58.91;100724.34;1716662;82;21441;-80
2022/05/04 00:54:32;;;;;;;5.22;2.45;;;;;;;9.12;58.91;100717.88;1717582;83;21370;-79
2022/05/04 00:56:59;;;;;;;4.58;2.42;;;;;;;9.11;58.86;100716.20;1716586;83;21113;-79
2022/05/04 00:59:26;;;;;;;4.55;2.35;;;;;;;9.08;58.92;100716.81;1716843;83;20876;-79
2022/05/04 01:01:53;;;;;;;4.33;2.33;;;;;;;9.06;58.95;100718.19;1716654;83;20979;-80
2022/05/04 01:04:19;;;;;;;4.33;2.05;;;;;;;9.05;58.98;100715.67;1716578;83;20979;-78
2022/05/04 01:06:46;;;;;;;14.33;4.95;;;;;;;9.01;58.97;100712.83;1716775;83;20880;-80
2022/05/04 01:09:13;;;;;;;3.92;2.10;;;;;;;9.00;59.07;100721.59;1716611;83;21319;-79
2022/05/04 01:11:43;;;;;;;5.90;2.37;;;;;;;8.98;59.07;100710.35;1716557;83;20979;-79
2022/05/04 01:14:14;;;;;;;10.63;2.62;;;;;;;8.97;59.02;100717.83;1716867;83;20892;-77
2022/05/04 01:16:45;;;;;;;9.55;2.47;;;;;;;8.93;58.97;100710.12;1716502;82;20868;-78
2022/05/04 01:19:12;;;;;;;5.85;2.30;;;;;;;8.91;58.96;100709.83;1716617;83;20908;-79
2022/05/04 01:21:38;;;;;;;3.55;2.50;;;;;;;8.90;58.97;100708.98;1716730;82;21885;-79
2022/05/04 01:24:08;;;;;;;4.67;2.08;;;;;;;8.89;58.90;100706.00;1713001;82;20856;-80
2022/05/04 01:26:36;;;;;;;9.75;3.85;;;;;;;8.88;58.78;100710.83;1708847;84;20896;-79
2022/05/04 01:29:03;;;;;;;9.05;5.53;;;;;;;8.88;58.71;100712.61;1709164;84;21402;-79
2022/05/04 01:31:30;;;;;;;7.25;3.00;;;;;;;8.88;58.62;100709.99;1708943;84;20924;-79
2022/05/04 01:33:57;;;;;;;3.47;2.35;;;;;;;8.87;58.51;100708.29;1708859;82;21895;-80
2022/05/04 01:36:24;;;;;;;5.83;2.20;;;;;;;8.86;58.44;100708.76;1709338;84;20936;-77
2022/05/04 01:38:51;;;;;;;6.33;2.87;;;;;;;8.87;58.37;100700.00;1709207;84;21489;-80
2022/05/04 01:43:58;;;;;;;2.40;1.90;;;;;;;8.87;58.03;100698.70;1684263;85;21026;-79
2022/05/04 01:46:24;;;;;;;4.35;2.33;;;;;;;8.88;58.03;100700.38;1684590;85;21465;-79
2022/05/04 01:48:50;;;;;;;5.20;2.25;;;;;;;8.88;58.03;100703.45;1684508;85;21054;-80
2022/05/04 01:51:17;;;;;;;3.92;1.87;;;;;;;8.87;57.99;100703.05;1684442;84;20896;-79
2022/05/04 01:53:44;;;;;;;4.62;1.90;;;;;;;8.87;57.98;100705.67;1683920;83;20953;-79
2022/05/04 01:56:12;;;;;;;4.05;2.00;;;;;;;8.85;58.03;100701.85;1684633;85;21058;-80
2022/05/04 01:58:38;;;;;;;3.42;2.12;;;;;;;8.85;58.00;100698.40;1684340;85;21265;-79
2022/05/04 02:01:06;;;;;;;5.20;2.47;;;;;;;8.84;58.05;100704.53;1684124;85;20891;-80
2022/05/04 02:03:33;;;;;;;3.85;2.33;;;;;;;8.83;58.09;100695.85;1684160;85;20959;-80
2022/05/04 02:06:00;;;;;;;4.03;1.85;;;;;;;8.82;58.19;100695.45;1684305;83;20967;-79
2022/05/04 02:08:26;;;;;;;2.30;1.67;;;;;;;8.83;58.16;100701.08;1684111;85;21445;-79
2022/05/04 02:10:53;;;;;;;3.95;2.52;;;;;;;8.82;58.18;100695.45;1684681;85;21904;-80
2022/05/04 02:13:19;;;;;;;5.37;3.75;;;;;;;8.81;58.14;100696.86;1684338;83;20912;-80
2022/05/04 02:15:46;;;;;;;5.45;2.95;;;;;;;8.81;58.20;100697.70;1684192;85;20983;-79
2022/05/04 02:18:13;;;;;;;4.92;2.33;;;;;;;8.81;58.18;100697.70;1684380;85;21018;-79
2022/05/04 02:20:40;;;;;;;7.12;2.92;;;;;;;8.81;58.22;100699.00;1704881;84;20992;-77
2022/05/04 02:23:06;;;;;;;4.03;2.08;;;;;;;8.80;58.39;100696.46;1708880;83;21385;-80
2022/05/04 02:25:33;;;;;;;3.95;2.00;;;;;;;8.80;58.47;100702.53;1715950;83;21481;-81
2022/05/04 02:28:00;;;;;;;3.02;1.92;;;;;;;8.78;58.49;100696.56;1716705;82;20943;-80
2022/05/04 02:30:26;;;;;;;5.42;1.92;;;;;;;8.78;58.55;100697.87;1718031;83;20952;-79
2022/05/04 02:32:53;;;;;;;8.13;3.05;;;;;;;8.76;58.50;100692.31;1719099;83;20955;-80
2022/05/04 02:38:05;;;;;;;5.30;2.08;;;;;;;8.77;58.87;100704.00;1718600;83;20935;-80
2022/05/04 02:40:31;;;;;;;5.95;2.83;;;;;;;8.76;58.76;100709.30;1717464;83;21511;-79
2022/05/04 02:42:57;;;;;;;5.55;2.52;;;;;;;8.76;58.98;100708.00;1716609;83;20978;-80
2022/05/04 02:45:24;;;;;;;5.97;2.02;;;;;;;8.77;59.10;100705.78;1716985;82;21014;-80
2022/05/04 02:47:51;;;;;;;4.90;2.58;;;;;;;8.76;58.90;100706.69;1716552;83;21113;-81
2022/05/04 02:50:17;;;;;;;5.67;2.08;;;;;;;8.77;59.00;100706.62;1716540;82;21524;-81
2022/05/04 02:52:44;;;;;;;6.08;2.62;;;;;;;8.77;58.87;100707.92;1716566;83;21516;-81
2022/05/04 02:55:11;;;;;;;4.20;2.20;;;;;;;8.79;59.03;100711.78;1716576;83;20940;-80
2022/05/04 02:57:38;;;;;;;3.20;2.30;;;;;;;8.80;59.19;100714.30;1716648;82;20987;-80
2022/05/04 03:00:06;;;;;;;4.50;3.10;;;;;;;8.81;59.20;100722.54;1716808;83;21241;-80
2022/05/04 03:02:33;;;;;;;3.12;2.35;;;;;;;8.82;59.30;100724.22;1716911;83;20896;-79
2022/05/04 03:05:03;;;;;;;4.60;2.40;;;;;;;8.85;59.02;100724.55;1716992;83;20935;-80
2022/05/04 03:07:29;;;;;;;5.15;2.42;;;;;;;8.86;59.17;100718.37;1716867;83;20920;-80
2022/05/04 03:09:56;;;;;;;5.08;2.33;;;;;;;8.89;58.94;100716.47;1716639;82;20896;-80
2022/05/04 03:12:23;;;;;;;6.50;2.35;;;;;;;8.93;58.80;100713.21;1716475;82;21320;-80
2022/05/04 03:14:50;;;;;;;3.58;2.30;;;;;;;8.96;58.82;100713.07;1716551;82;20931;-81
2022/05/04 03:17:17;;;;;;;5.35;2.58;;;;;;;9.00;58.74;100712.43;1716699;83;20852;-80
2022/05/04 03:19:43;;;;;;;4.40;2.12;;;;;;;9.04;58.68;100714.80;1716519;82;20943;-81
2022/05/04 03:22:10;;;;;;;3.27;1.85;;;;;;;9.08;58.74;100716.34;1716502;83;20931;-80
2022/05/04 03:24:38;;;;;;;3.60;2.35;;;;;;;9.15;58.51;100712.10;1716508;82;21898;-78
2022/05/04 03:27:08;;;;;;;4.20;2.30;;;;;;;9.22;58.35;100708.23;1716365;83;21454;-81
2022/05/04 03:29:34;;;;;;;4.20;2.12;;;;;;;9.28;58.21;100708.75;1716789;83;20904;-80
2022/05/04 03:32:02;;;;;;;3.47;1.87;;;;;;;9.33;58.12;100711.95;1716486;83;20888;-80
2022/05/04 03:34:30;;;;;;;3.33;1.95;;;;;;;9.42;58.15;100713.23;1716554;83;20939;-79
2022/05/04 03:36:58;;;;;;;5.30;2.95;;;;;;;9.50;57.96;100716.30;1716942;82;21216;-80
2022/05/04 03:39:28;;;;;;;2.42;2.00;;;;;;;9.60;57.93;100717.11;1716530;83;20896;-82
2022/05/04 03:41:54;;;;;;;7.37;2.62;;;;;;;9.67;57.78;100717.14;1716519;83;20936;-80
2022/05/04 03:44:21;;;;;;;4.67;2.90;;;;;;;9.73;57.50;100720.74;1716930;82;20987;-81
2022/05/04 03:46:52;;;;;;;4.25;2.77;;;;;;;9.82;57.42;100729.88;1717878;83;21030;-81
2022/05/04 03:49:23;;;;;;;2.22;2.02;;;;;;;9.90;57.12;100719.83;1716712;83;21131;-80
2022/05/04 03:51:51;;;;;;;4.47;2.52;;;;;;;9.99;57.00;100730.27;1716813;83;21377;-80
2022/05/04 03:54:19;;;;;;;5.70;2.77;;;;;;;10.07;56.98;100722.80;1716704;83;20908;-79
2022/05/04 03:56:45;;;;;;;4.30;2.30;;;;;;;10.15;56.58;100720.59;1716818;83;20911;-81
2022/05/04 03:59:12;;;;;;;5.33;2.62;;;;;;;10.24;56.35;100724.47;1716917;83;20892;-80
2022/05/04 04:01:39;;;;;;;8.98;2.65;;;;;;;10.33;56.45;100726.59;1716642;83;21259;-81
2022/05/04 04:04:08;;;;;;;6.97;2.83;;;;;;;10.43;55.90;100723.84;1716627;83;20920;-81
2022/05/04 04:06:34;;;;;;;11.28;3.33;;;;;;;10.53;55.74;100717.58;1752926;81;20928;-80
2022/05/04 04:09:01;;;;;;;18.27;3.50;;;;;;;10.70;55.41;100707.42;1716627;82;20936;-81
2022/05/04 04:11:29;;;;;;;6.62;2.83;;;;;;;10.94;54.84;100715.63;1716749;83;20869;-80
2022/05/04 04:13:58;;;;;;;4.83;3.20;;;;;;;11.26;54.29;100717.59;1716702;83;21176;-80
2022/05/04 04:16:25;;;;;;;8.75;3.02;;;;;;;11.62;53.58;100712.30;1716627;83;20939;-80
2022/05/04 04:18:51;;;;;;;4.28;2.80;;;;;;;11.97;52.75;100716.66;1716575;82;20912;-80
2022/05/04 04:24:05;;;;;;;9.15;3.55;;;;;;;12.62;51.19;100706.69;1717153;83;20883;-78
2022/05/04 04:26:32;;;;;;;10.00;4.05;;;;;;;13.03;50.56;100707.47;1716977;83;21453;-80
2022/05/04 04:28:58;;;;;;;11.53;3.67;;;;;;;13.36;49.88;100707.41;1717836;83;21077;-79
2022/05/04 04:31:25;;;;;;;9.88;3.95;;;;;;;13.60;49.37;100713.56;1717406;83;20947;-81
2022/05/04 04:33:52;;;;;;;7.12;4.15;;;;;;;13.71;48.79;100702.27;1716879;83;20896;-79
2022/05/04 04:36:18;;;;;;;10.95;5.50;;;;;;;13.77;49.03;100710.22;1712420;83;21023;-78
2022/05/04 04:38:46;;;;;;;12.90;4.33;;;;;;;13.81;48.89;100706.42;1716696;83;21274;-78
2022/05/04 04:41:13;;;;;;;10.38;4.33;;;;;;;13.84;49.07;100707.02;1717064;82;20968;-80
2022/05/04 04:43:39;;;;;;;11.43;4.53;;;;;;;13.92;49.05;100701.20;1717070;82;20920;-80
2022/05/04 04:46:06;;;;;;;9.78;4.53;;;;;;;14.03;48.82;100701.75;1716822;82;20924;-81
2022/05/04 04:48:33;;;;;;;7.97;4.90;;;;;;;14.43;48.78;100694.84;1716783;83;20883;-81
2022/05/04 04:51:00;;;;;;;6.90;5.05;;;;;;;14.43;48.78;100694.84;1716856;83;21749;-82
2022/05/04 04:53:26;;;;;;;11.03;5.00;;;;;;;14.73;48.00;100694.33;1716526;82;20884;-80
2022/05/04 04:55:53;;;;;;;10.08;5.08;;;;;;;15.11;47.99;100695.81;1716926;83;20884;-82
2022/05/04 04:58:19;;;;;;;11.65;5.00;;;;;;;15.66;47.00;100696.73;1716860;83;20947;-82
2022/05/04 05:00:46;;;;;;;9.00;5.22;;;;;;;16.23;45.56;100695.27;1716836;83;20876;-82
2022/05/04 05:03:12;;;;;;;10.03;5.55;;;;;;;16.78;44.73;100694.62;1717011;83;21220;-84
2022/05/04 05:05:42;;;;;;;12.58;6.12;;;;;;;17.22;43.29;100701.92;1716822;83;20976;-81
2022/05/04 05:08:10;;;;;;;9.48;5.33;;;;;;;17.56;42.75;100700.28;1716803;83;21453;-82
2022/05/04 05:10:37;;;;;;;9.93;5.87;;;;;;;17.93;42.51;100692.58;1716919;82;20892;-79
2022/05/04 05:13:04;;;;;;;8.18;5.90;;;;;;;18.38;41.81;100686.71;1718521;83;20928;-82
2022/05/04 05:18:16;;;;;;;11.30;5.78;;;;;;;19.23;40.21;100691.66;1716667;82;20916;-80
2022/05/04 05:20:43;;;;;;;10.90;5.17;;;;;;;19.72;39.49;100691.44;1716855;83;20864;-81
2022/05/04 05:23:10;;;;;;;9.68;4.90;;;;;;;20.13;38.55;100685.67;1716687;83;20927;-81
2022/05/04 05:25:36;;;;;;;7.92;5.45;;;;;;;20.50;38.21;100683.66;1712193;82;20924;-81
2022/05/04 05:28:05;;;;;;;9.65;5.60;;;;;;;20.85;37.38;100689.92;1708966;84;21406;-82
2022/05/04 05:30:31;;;;;;;7.97;5.10;;;;;;;21.17;36.80;100679.59;1709031;82;21480;-81
2022/05/04 05:32:58;;;;;;;11.65;5.92;;;;;;;21.46;36.41;100677.91;1709487;83;21549;-81
2022/05/04 05:35:24;;;;;;;7.97;5.62;;;;;;;21.81;35.26;100676.84;1708935;84;20892;-81
2022/05/04 05:37:51;;;;;;;12.35;5.90;;;;;;;22.06;35.25;100676.87;1709550;82;20920;-82
2022/05/04 05:40:17;;;;;;;13.43;7.97;;;;;;;22.37;34.85;100675.73;1712039;84;21196;-81
2022/05/04 05:42:45;;;;;;;10.70;5.67;;;;;;;22.71;34.38;100671.50;1711478;84;20940;-82
2022/05/04 05:45:11;;;;;;;9.28;4.95;;;;;;;23.04;34.40;100674.64;1710997;84;20893;-82
2022/05/04 05:47:39;;;;;;;5.40;4.50;;;;;;;23.32;33.23;100671.00;1710597;82;20944;-80
2022/05/04 05:50:07;;;;;;;9.63;4.28;;;;;;;23.43;32.74;100671.95;1708894;84;21394;-85
2022/05/04 05:52:34;;;;;;;7.87;4.42;;;;;;;23.43;32.92;100672.47;1708959;84;21096;-81
2022/05/04 05:55:01;;;;;;;9.73;6.08;;;;;;;23.46;32.81;100668.13;1709806;82;21495;-80
2022/05/04 05:57:27;;;;;;;8.15;4.22;;;;;;;23.48;32.09;100668.27;1709933;84;20950;-82
2022/05/04 05:59:54;;;;;;;8.50;4.20;;;;;;;23.52;32.63;100669.59;1709018;82;20947;-80
2022/05/04 06:02:22;;;;;;;9.53;4.17;;;;;;;23.72;32.22;100663.77;1709018;84;20987;-82
2022/05/04 06:04:50;;;;;;;7.75;4.75;;;;;;;23.80;31.52;100662.42;1708991;84;21165;-81
2022/05/04 06:07:16;;;;;;;7.60;4.75;;;;;;;23.86;31.54;100660.89;1708883;82;20920;-82
2022/05/04 06:09:45;;;;;;;8.13;4.55;;;;;;;23.93;31.58;100660.50;1708818;82;20908;-81
2022/05/04 06:12:11;;;;;;;4.55;3.55;;;;;;;24.05;31.10;100664.41;1708965;82;20904;-81
2022/05/04 06:14:38;;;;;;;6.10;3.62;;;;;;;24.11;31.42;100660.19;1709145;84;21002;-81
2022/05/04 06:17:04;;;;;;;8.53;4.30;;;;;;;24.14;31.03;100657.97;1709531;84;21227;-81
2022/05/04 06:19:31;;;;;;;6.92;4.40;;;;;;;23.99;31.23;100661.13;1709032;84;20932;-81
2022/05/04 06:22:00;;;;;;;8.13;3.83;;;;;;;23.75;31.30;100656.77;1709054;84;21382;-80
2022/05/04 06:24:27;;;;;;;9.33;4.33;;;;;;;23.56;31.50;100647.30;1709595;84;20988;-81
2022/05/04 06:26:56;;;;;;;6.53;3.65;;;;;;;23.55;31.90;100661.20;1716923;82;21350;-81
2022/05/04 06:34:06;;;;;;;9.60;3.85;;;;;;;23.57;31.93;100647.13;1716555;83;21239;-80
2022/05/04 06:34:37;;;;;;;7.35;3.70;;;;;;;23.69;31.49;100639.52;1716649;83;20932;-80
2022/05/04 06:37:03;;;;;;;12.78;9.68;;;;;;;23.79;31.96;100644.70;1716525;83;20958;-80
2022/05/04 06:39:30;;;;;;;9.78;4.47;;;;;;;23.99;31.33;100644.54;1717859;82;20939;-82
2022/05/04 06:41:56;;;;;;;8.33;6.42;;;;;;;24.28;31.11;100645.65;1716378;83;22106;-80
2022/05/04 06:44:24;;;;;;;14.33;3.70;;;;;;;24.62;31.23;100641.66;1716515;83;20927;-81
2022/05/04 06:46:50;;;;;;;8.50;4.55;;;;;;;24.90;30.01;100641.01;1717078;83;20955;-81
2022/05/04 06:49:17;;;;;;;7.42;2.83;;;;;;;25.09;29.72;100639.63;1716689;82;20907;-80
2022/05/04 06:51:43;;;;;;;6.30;4.03;;;;;;;25.25;29.61;100634.59;1716680;83;21019;-81
2022/05/04 06:54:10;;;;;;;7.87;3.60;;;;;;;25.46;29.64;100644.52;1753323;82;21108;-81
2022/05/04 06:56:37;;;;;;;5.53;2.62;;;;;;;25.70;29.44;100637.48;1752778;82;20885;-81
2022/05/04 06:59:05;;;;;;;5.70;3.00;;;;;;;25.90;29.39;100637.72;1752961;80;21434;-80
2022/05/04 07:01:31;;;;;;;5.20;2.85;;;;;;;26.12;28.65;100636.34;1716981;83;20978;-81
2022/05/04 07:03:59;;;;;;;5.75;4.17;;;;;;;26.29;28.68;100635.55;1716532;83;20991;-81
2022/05/04 07:06:27;;;;;;;4.35;3.40;;;;;;;26.41;28.52;100633.48;1716651;83;21268;-81
2022/05/04 07:08:53;;;;;;;5.92;1.82;;;;;;;26.45;28.23;100634.73;1716543;83;20892;-82
2022/05/04 07:11:20;;;;;;;5.42;2.25;;;;;;;26.39;28.07;100630.65;1716462;83;20983;-81
2022/05/04 07:13:46;;;;;;;7.90;2.83;;;;;;;26.28;27.43;100632.53;1716463;83;20960;-81
2022/05/04 07:16:14;;;;;;;6.80;2.60;;;;;;;26.10;28.22;100647.80;1716928;83;21386;-81
2022/05/04 07:18:41;;;;;;;5.97;2.80;;;;;;;25.82;28.55;100645.34;1716607;83;21485;-81
2022/05/04 07:21:07;;;;;;;4.33;2.20;;;;;;;25.62;28.66;100650.51;1716956;83;20880;-81
2022/05/04 07:23:34;;;;;;;8.28;3.20;;;;;;;25.50;28.61;100643.98;1717970;83;20896;-82
2022/05/04 07:26:00;;;;;;;3.77;3.47;;;;;;;25.43;28.93;100645.25;1712842;82;20943;-82
2022/05/04 07:28:26;;;;;;;5.35;3.17;;;;;;;25.52;29.00;100640.57;1708843;84;21543;-81
2022/05/04 07:30:53;;;;;;;7.67;3.30;;;;;;;25.66;29.28;100640.23;1709242;84;21241;-82
2022/05/04 07:33:21;;;;;;;5.62;3.22;;;;;;;25.71;28.40;100638.31;1708942;82;20940;-81
2022/05/04 07:35:47;;;;;;;5.25;2.80;;;;;;;25.56;28.90;100639.69;1708846;84;21033;-81
2022/05/04 07:38:14;;;;;;;5.75;3.00;;;;;;;25.43;29.05;100642.56;1709242;82;20904;-82
2022/05/04 07:43:25;;;;;;;10.60;5.20;;;;;;;25.15;29.42;100650.96;1709066;84;21264;-80
2022/05/04 07:45:52;;;;;;;9.48;5.03;;;;;;;25.03;29.34;100642.05;1708993;84;20975;-81
2022/05/04 07:48:18;;;;;;;7.20;4.70;;;;;;;24.91;29.55;100639.49;1709073;84;20963;-80
2022/05/04 07:50:47;;;;;;;3.85;2.47;;;;;;;24.96;29.60;100644.30;1708981;84;20932;-81
2022/05/04 07:53:15;;;;;;;11.45;4.03;;;;;;;25.08;29.32;100636.60;1708961;82;21441;-79
2022/05/04 07:55:42;;;;;;;4.03;2.35;;;;;;;25.22;28.69;100633.94;1709053;84;21264;-80
2022/05/04 07:58:08;;;;;;;2.85;2.40;;;;;;;25.31;28.25;100633.84;1709218;84;21462;-81
2022/05/04 08:06:05;;;;;;;4.25;2.55;;;;;;;26.44;28.25;100626.88;1710399;84;20889;-83
2022/05/04 08:08:31;;;;;;;6.30;2.70;;;;;;;26.80;27.94;100625.38;1709315;84;21137;-80
2022/05/04 08:10:58;;;;;;;2.92;2.25;;;;;;;27.12;27.22;100621.69;1709371;84;20924;-82
2022/05/04 08:13:26;;;;;;;6.00;2.17;;;;;;;27.38;27.46;100617.47;1709458;84;20861;-80
2022/05/04 08:15:53;;;;;;;6.65;3.37;;;;;;;27.56;26.36;100617.72;1709192;84;20943;-82
2022/05/04 08:18:20;;;;;;;6.00;2.33;;;;;;;27.68;26.02;100621.48;1709376;84;21019;-82
2022/05/04 08:20:47;;;;;;;2.42;2.00;;;;;;;27.80;25.67;100619.01;1709085;84;21143;-81
2022/05/04 08:23:14;;;;;;;7.58;2.77;;;;;;;27.84;25.93;100618.09;1709021;84;20916;-81
2022/05/04 08:25:40;;;;;;;4.05;2.47;;;;;;;28.10;26.56;100615.94;1710846;83;20939;-81
2022/05/04 08:28:12;;;;;;;5.78;2.58;;;;;;;28.37;25.53;100614.56;1716800;83;20960;-81
2022/05/04 08:30:37;;;;;;;2.98;2.50;;;;;;;28.54;25.15;100617.70;1716724;83;20880;-80
2022/05/04 08:33:04;;;;;;;7.70;2.85;;;;;;;28.82;24.83;100621.48;1716962;82;21092;-81
2022/05/04 08:35:32;;;;;;;4.83;2.40;;;;;;;28.95;24.01;100617.39;1716844;83;21450;-82
2022/05/04 08:37:59;;;;;;;3.37;2.33;;;;;;;29.06;24.15;100616.72;1716620;83;20982;-81
2022/05/04 08:40:28;;;;;;;2.80;1.50;;;;;;;29.19;24.25;100614.49;1716637;83;20932;-81
2022/05/04 08:42:57;;;;;;;6.37;2.80;;;;;;;29.36;23.31;100616.71;1716561;83;20869;-82
2022/05/04 08:45:24;;;;;;;3.62;2.27;;;;;;;29.40;22.77;100626.05;1716535;83;21256;-81
2022/05/04 08:47:50;;;;;;;16.77;3.72;;;;;;;29.35;23.22;100613.19;1717164;82;20920;-81
2022/05/04 08:50:17;;;;;;;4.55;2.12;;;;;;;29.38;23.71;100615.45;1736006;82;20928;-80
2022/05/04 08:52:53;;;;;;;6.70;4.35;;;;;;;29.45;23.46;100608.66;1756139;81;20896;-80
2022/05/04 08:55:24;;;;;;;5.62;2.62;;;;;;;29.48;22.80;100604.16;1755716;79;20916;-81
2022/05/04 08:57:51;;;;;;;4.35;1.98;;;;;;;29.47;23.28;100604.69;1719419;80;21260;-82
2022/05/04 09:00:18;;;;;;;5.15;1.98;;;;;;;29.42;22.02;100605.05;1718808;80;20881;-81
2022/05/04 09:02:44;;;;;;;2.33;1.50;;;;;;;29.36;22.80;100597.27;1717201;82;21024;-81
2022/05/04 09:05:22;;;;;;;3.02;1.85;;;;;;;29.21;22.33;100602.13;1716767;82;20991;-82
2022/05/04 09:07:51;;;;;;;5.28;2.42;;;;;;;29.23;23.18;100597.34;1716466;82;20894;-82
2022/05/04 09:10:24;;;;;;;5.60;3.33;;;;;;;29.36;22.70;100597.80;1716543;82;21267;-81
2022/05/04 09:12:52;;;;;;;4.67;2.00;;;;;;;29.39;21.75;100595.47;1716757;82;20955;-82
2022/05/04 09:15:26;;;;;;;5.60;1.47;;;;;;;29.24;22.99;100596.31;1716535;83;20935;-81
2022/05/04 09:18:01;;;;;;;3.52;1.80;;;;;;;29.11;23.18;100587.22;1716540;83;21469;-80
2022/05/04 09:20:51;;;;;;;6.12;1.60;;;;;;;28.97;23.45;100595.05;1716573;83;20860;-82
2022/05/04 09:23:21;;;;;;;5.35;2.10;;;;;;;28.79;23.55;100586.30;1716754;83;21108;-82
2022/05/04 09:25:59;;;;;;;6.15;3.83;;;;;;;28.63;22.90;100582.17;1716329;82;20951;-81
2022/05/04 09:28:26;;;;;;;2.77;1.90;;;;;;;28.25;23.51;100582.02;1716673;83;20896;-80
2022/05/04 09:30:56;;;;;;;7.25;2.95;;;;;;;27.83;23.66;100587.59;1717137;82;20936;-80
2022/05/04 09:33:27;;;;;;;5.75;4.22;;;;;;;27.39;24.27;100584.95;1754264;81;20921;-79
2022/05/04 09:35:55;;;;;;;6.05;3.45;;;;;;;27.03;24.44;100582.52;1752761;82;21124;-81
2022/05/04 09:46:47;;;;;;;5.72;2.58;;;;;;;27.52;24.37;100573.88;1753376;80;20908;-80
2022/05/04 09:49:24;;;;;;;3.67;1.90;;;;;;;27.74;24.19;100563.23;1752824;80;21096;-82
2022/05/04 09:51:53;;;;;;;3.55;2.62;;;;;;;27.80;24.13;100561.06;1752629;80;21037;-80
2022/05/04 09:54:30;;;;;;;7.33;1.70;;;;;;;27.76;24.16;100565.73;1753369;82;21058;-80
2022/05/04 09:57:04;;;;;;;8.20;1.70;;;;;;;27.54;24.66;100560.52;1752677;82;20897;-81
2022/05/04 09:59:33;;;;;;;4.72;2.08;;;;;;;27.34;24.73;100557.78;1716660;83;20943;-80
2022/05/04 10:02:03;;;;;;;3.87;1.30;;;;;;;27.18;24.36;100553.58;1716111;83;21294;-81
2022/05/04 10:04:36;;;;;;;4.17;1.90;;;;;;;27.04;24.86;100550.02;1716539;83;21523;-80
2022/05/04 10:07:03;;;;;;;7.83;2.00;;;;;;;26.99;25.07;100541.73;1716883;83;20975;-80
2022/05/04 10:09:30;;;;;;;7.00;2.40;;;;;;;27.07;25.55;100556.33;1717016;82;20963;-80
2022/05/04 10:11:58;;;;;;;5.65;2.25;;;;;;;27.19;25.45;100556.59;1716811;82;20935;-82
2022/05/04 10:14:25;;;;;;;3.47;1.65;;;;;;;27.07;25.35;100546.09;1717322;83;21225;-80
2022/05/04 10:17:13;;;;;;;3.45;1.05;;;;;;;26.86;25.74;100555.96;1717662;83;20939;-80
2022/05/04 10:20:06;;;;;;;2.22;1.85;;;;;;;26.57;26.22;100550.83;1716681;83;20982;-79
2022/05/04 10:22:40;;;;;;;8.30;2.75;;;;;;;26.41;25.55;100546.09;1751010;82;20869;-81
2022/05/04 10:25:08;;;;;;;8.88;4.03;;;;;;;26.36;25.52;100546.35;1752593;82;20845;-80
2022/05/04 10:27:43;;;;;;;2.20;1.85;;;;;;;26.41;25.66;100540.71;1716881;83;21344;-80
2022/05/04 10:32:59;;;;;;;3.22;1.50;;;;;;;26.36;26.25;100531.04;1716503;82;20934;-81
2022/05/04 10:35:42;;;;;;;3.33;1.87;;;;;;;26.59;26.83;100524.08;1716503;83;20964;-81
2022/05/04 10:38:11;;;;;;;;;;;;;;;26.86;26.54;100530.39;1719008;83;20888;-81
2022/05/04 10:41:37;;;;;;;4.35;1.60;;;;;;;26.83;25.81;100533.47;1799007;79;22578;-80
2022/05/04 10:44:10;;;;;;;4.22;2.00;;;;;;;26.47;26.17;100531.83;1758646;80;21017;-80
2022/05/04 10:46:43;;;;;;;1.67;1.55;;;;;;;25.98;26.16;100535.44;1758509;81;21330;-81
2022/05/04 10:49:16;;;;;;;5.17;2.37;;;;;;;25.53;26.81;100536.17;1758544;80;21433;-80
2022/05/04 10:51:50;;;;;;;5.50;3.27;;;;;;;25.18;27.40;100533.30;1758680;81;20989;-80
2022/05/04 10:54:18;;;;;;;13.50;4.97;;;;;;;25.11;27.43;100530.23;1758698;81;20947;-81
2022/05/04 10:56:48;;;;;;;8.40;5.53;;;;;;;24.96;27.22;100532.44;1758856;81;20865;-80
2022/05/04 10:59:31;;;;;;;5.05;3.83;;;;;;;24.88;27.48;100525.00;1759109;81;21209;-81
2022/05/04 11:02:05;;;;;;;3.55;3.12;;;;;;;24.94;27.53;100524.26;1758462;81;20869;-80
2022/05/04 11:04:33;;;;;;;3.98;2.47;;;;;;;25.02;27.48;100520.12;1758273;81;20983;-82
2022/05/04 11:07:06;;;;;;;5.22;2.67;;;;;;;25.17;27.58;100512.87;1758260;81;21532;-83
2022/05/04 11:09:42;;;;;;;2.47;1.50;;;;;;;25.33;27.39;100514.50;1758351;80;20928;-82
2022/05/04 11:12:11;;;;;;;4.53;1.98;;;;;;;25.61;27.93;100495.77;1758518;81;21190;-81
2022/05/04 11:14:38;;;;;;;2.30;2.02;;;;;;;25.89;27.65;100497.66;1758202;81;20888;-81
2022/05/04 11:17:13;;;;;;;3.85;2.45;;;;;;;26.19;26.98;100492.91;1758235;81;21379;-82
2022/05/04 11:19:45;;;;;;;5.97;2.15;;;;;;;26.45;26.25;100494.88;1758159;80;20975;-81
2022/05/04 11:22:13;;;;;;;1.30;1.20;;;;;;;26.57;26.42;100481.75;1758542;80;20938;-82
2022/05/04 11:24:40;;;;;;;4.15;1.85;;;;;;;26.82;26.13;100490.11;1758282;81;21222;-84
2022/05/04 11:27:07;;;;;;;6.87;2.08;;;;;;;26.96;26.35;100482.91;1758306;80;21405;-83
2022/05/04 11:29:34;;;;;;;2.65;1.37;;;;;;;27.01;26.51;100486.33;1758345;80;21422;-82
2022/05/04 11:32:03;;;;;;;6.00;1.47;;;;;;;26.97;25.85;100479.69;1758414;81;20983;-81
2022/05/04 11:34:38;;;;;;;4.22;1.75;;;;;;;26.75;26.23;100479.85;1758513;80;20924;-82
2022/05/04 11:37:09;;;;;;;2.42;1.35;;;;;;;26.37;26.39;100480.28;1759254;81;23881;-81
2022/05/04 11:39:38;;;;;;;2.02;1.55;;;;;;;25.89;26.50;100472.65;1758441;80;20928;-81
2022/05/04 11:42:09;;;;;;;2.95;1.60;;;;;;;25.46;27.24;100472.19;1760275;81;20896;-79
2022/05/04 11:44:39;;;;;;;4.15;2.35;;;;;;;25.13;28.08;100469.16;1758815;81;20892;-81
2022/05/04 11:47:07;;;;;;;4.87;1.92;;;;;;;24.84;28.19;100470.09;1758507;80;20920;-80
2022/05/04 11:49:36;;;;;;;6.97;2.00;;;;;;;24.63;29.01;100461.47;1759262;81;21825;-81
2022/05/04 11:52:05;;;;;;;6.20;2.05;;;;;;;24.51;28.94;100461.95;1758135;81;20916;-82
2022/05/04 11:54:32;;;;;;;5.65;1.90;;;;;;;24.29;29.27;100453.50;1758029;81;21611;-81
2022/05/04 11:56:58;;;;;;;3.00;1.70;;;;;;;24.07;29.53;100460.09;1722234;82;20943;-81
2022/05/04 11:59:30;;;;;;;7.20;2.33;;;;;;;23.88;29.88;100457.95;1722173;83;20903;-81
2022/05/04 12:01:58;;;;;;;7.00;1.98;;;;;;;23.70;30.09;100459.12;1721949;83;21899;-81
2022/05/04 12:04:25;;;;;;;5.50;2.30;;;;;;;23.55;30.61;100460.41;1722087;83;20923;-82